createdAt,value
2019-05-23T00:01:56.318Z,0.00
2019-05-23T00:02:56.275Z,0.00
2019-05-23T00:03:56.242Z,0.00
2019-05-23T00:04:56.259Z,0.00
2019-05-23T00:05:56.210Z,0.00
2019-05-23T00:06:56.182Z,0.00
2019-05-23T00:07:56.153Z,0.00
2019-05-23T00:08:56.138Z,0.00
2019-05-23T00:09:56.118Z,0.00
2019-05-23T00:10:56.104Z,0.00
2019-05-23T00:11:56.047Z,0.00
2019-05-23T00:12:56.013Z,0.00
2019-05-23T00:13:56.010Z,0.00
2019-05-23T00:14:55.964Z,0.00
2019-05-23T00:15:55.969Z,0.00
2019-05-23T00:16:55.938Z,0.00
2019-05-23T00:17:55.958Z,0.00
2019-05-23T00:18:55.900Z,0.00
2019-05-23T00:19:55.848Z,0.00
2019-05-23T00:20:55.818Z,0.00
2019-05-23T00:21:55.802Z,0.00
2019-05-23T00:22:55.774Z,0.00
2019-05-23T00:23:55.770Z,0.00
2019-05-23T00:24:55.753Z,0.00
2019-05-23T00:25:55.715Z,0.00
2019-05-23T00:26:55.676Z,0.00
2019-05-23T00:27:55.649Z,0.00
2019-05-23T00:29:08.984Z,0.00
2019-05-23T00:29:55.594Z,0.00
2019-05-23T00:30:55.556Z,0.00
2019-05-23T00:31:55.561Z,0.00
2019-05-23T00:32:55.532Z,0.00
2019-05-23T00:33:55.513Z,0.00
2019-05-23T00:34:55.457Z,0.00
2019-05-23T00:35:55.436Z,0.00
2019-05-23T00:36:55.418Z,0.00
2019-05-23T00:37:55.395Z,0.00
2019-05-23T00:38:55.346Z,0.00
2019-05-23T00:39:55.327Z,0.00
2019-05-23T00:40:55.310Z,0.00
2019-05-23T00:41:55.287Z,0.00
2019-05-23T00:42:55.250Z,0.00
2019-05-23T00:43:55.247Z,0.00
2019-05-23T00:44:55.200Z,0.00
2019-05-23T00:45:55.164Z,0.00
2019-05-23T00:46:55.142Z,0.00
2019-05-23T00:47:55.127Z,0.00
2019-05-23T00:48:55.125Z,0.00
2019-05-23T00:49:55.086Z,0.00
2019-05-23T00:50:55.067Z,0.00
2019-05-23T00:51:55.038Z,0.00
2019-05-23T00:52:55.039Z,0.00
2019-05-23T00:53:54.968Z,0.00
2019-05-23T00:54:54.941Z,0.00
2019-05-23T00:55:54.909Z,0.00
2019-05-23T00:56:54.923Z,0.00
2019-05-23T00:57:54.884Z,0.00
2019-05-23T00:58:54.849Z,0.00
2019-05-23T00:59:54.813Z,0.00
2019-05-23T01:00:54.790Z,0.00
2019-05-23T01:01:54.757Z,0.00
2019-05-23T01:02:54.744Z,0.00
2019-05-23T01:03:54.715Z,0.00
2019-05-23T01:04:54.727Z,0.00
2019-05-23T01:05:54.680Z,0.00
2019-05-23T01:06:54.675Z,0.00
2019-05-23T01:07:54.614Z,0.00
2019-05-23T01:08:54.595Z,0.00
2019-05-23T01:09:54.586Z,0.00
2019-05-23T01:10:54.547Z,0.00
2019-05-23T01:11:54.534Z,0.00
2019-05-23T01:12:54.498Z,0.00
2019-05-23T01:13:54.467Z,0.00
2019-05-23T01:14:54.422Z,0.00
2019-05-23T01:15:54.412Z,0.00
2019-05-23T01:16:54.370Z,0.00
2019-05-23T01:17:54.374Z,0.00
2019-05-23T01:18:54.325Z,0.00
2019-05-23T01:19:54.317Z,0.00
2019-05-23T01:20:54.279Z,0.00
2019-05-23T01:21:54.267Z,0.00
2019-05-23T01:22:54.235Z,0.00
2019-05-23T01:23:54.197Z,0.00
2019-05-23T01:24:54.176Z,0.00
2019-05-23T01:25:54.149Z,0.00
2019-05-23T01:26:54.122Z,0.00
2019-05-23T01:27:54.090Z,0.00
2019-05-23T01:28:54.062Z,0.00
2019-05-23T01:29:54.046Z,0.00
2019-05-23T01:30:54.026Z,0.00
2019-05-23T01:31:53.996Z,0.00
2019-05-23T01:32:53.958Z,0.00
2019-05-23T01:33:53.935Z,0.00
2019-05-23T01:34:53.912Z,0.00
2019-05-23T01:35:53.899Z,0.00
2019-05-23T01:36:53.868Z,0.00
2019-05-23T01:37:53.854Z,0.00
2019-05-23T01:38:53.820Z,0.00
2019-05-23T01:39:53.782Z,0.00
2019-05-23T01:40:53.782Z,0.00
2019-05-23T01:41:53.794Z,0.00
2019-05-23T01:42:53.717Z,0.00
2019-05-23T01:43:53.683Z,0.00
2019-05-23T01:44:53.685Z,0.00
2019-05-23T01:45:53.636Z,0.00
2019-05-23T01:46:53.608Z,0.00
2019-05-23T01:47:53.582Z,0.00
2019-05-23T01:48:53.542Z,0.00
2019-05-23T01:49:53.531Z,0.00
2019-05-23T01:50:53.511Z,0.00
2019-05-23T01:51:53.475Z,0.00
2019-05-23T01:52:53.466Z,0.00
2019-05-23T01:53:53.412Z,0.00
2019-05-23T01:54:53.396Z,0.00
2019-05-23T01:55:53.378Z,0.00
2019-05-23T01:56:53.343Z,0.00
2019-05-23T01:57:53.314Z,0.00
2019-05-23T01:58:53.289Z,0.00
2019-05-23T02:00:08.359Z,0.00
2019-05-23T02:00:53.252Z,0.00
2019-05-23T02:01:53.223Z,0.00
2019-05-23T02:02:53.197Z,0.00
2019-05-23T02:03:53.169Z,0.00
2019-05-23T02:04:53.156Z,0.00
2019-05-23T02:05:53.125Z,0.00
2019-05-23T02:06:53.081Z,0.00
2019-05-23T02:07:53.060Z,0.00
2019-05-23T02:08:53.036Z,0.00
2019-05-23T02:09:53.031Z,0.00
2019-05-23T02:10:53.018Z,0.00
2019-05-23T02:11:52.958Z,0.00
2019-05-23T02:12:52.948Z,0.00
2019-05-23T02:13:52.933Z,0.00
2019-05-23T02:14:52.886Z,0.00
2019-05-23T02:15:52.858Z,0.00
2019-05-23T02:16:52.819Z,0.00
2019-05-23T02:17:52.823Z,0.00
2019-05-23T02:18:52.774Z,0.00
2019-05-23T02:19:52.802Z,0.00
2019-05-23T02:20:52.746Z,0.00
2019-05-23T02:21:52.714Z,0.00
2019-05-23T02:22:52.682Z,0.00
2019-05-23T02:23:52.643Z,0.00
2019-05-23T02:24:52.658Z,0.00
2019-05-23T02:25:52.632Z,0.00
2019-05-23T02:26:52.614Z,0.00
2019-05-23T02:27:52.584Z,0.00
2019-05-23T02:28:52.548Z,0.00
2019-05-23T02:29:52.492Z,0.00
2019-05-23T02:30:52.472Z,0.00
2019-05-23T02:31:52.446Z,0.00
2019-05-23T02:32:52.441Z,0.00
2019-05-23T02:33:52.382Z,0.00
2019-05-23T02:34:52.400Z,0.00
2019-05-23T02:35:52.332Z,0.00
2019-05-23T02:36:52.304Z,0.00
2019-05-23T02:37:52.293Z,0.00
2019-05-23T02:38:52.293Z,0.00
2019-05-23T02:39:52.236Z,0.00
2019-05-23T02:40:52.251Z,0.00
2019-05-23T02:41:52.187Z,0.00
2019-05-23T02:42:52.169Z,0.00
2019-05-23T02:43:52.137Z,0.00
2019-05-23T02:44:52.109Z,0.00
2019-05-23T02:45:52.087Z,0.00
2019-05-23T02:46:52.063Z,0.00
2019-05-23T02:47:52.029Z,0.00
2019-05-23T02:48:52.004Z,0.00
2019-05-23T02:49:51.977Z,0.00
2019-05-23T02:50:51.964Z,0.00
2019-05-23T02:51:51.953Z,0.00
2019-05-23T02:52:51.893Z,0.00
2019-05-23T02:53:51.896Z,0.00
2019-05-23T02:54:51.850Z,0.00
2019-05-23T02:55:51.809Z,0.00
2019-05-23T02:56:51.820Z,0.00
2019-05-23T02:57:51.856Z,0.00
2019-05-23T02:58:51.765Z,0.00
2019-05-23T02:59:51.765Z,0.00
2019-05-23T03:00:54.918Z,0.00
2019-05-23T03:01:51.683Z,0.00
2019-05-23T03:02:51.661Z,0.00
2019-05-23T03:03:51.636Z,0.00
2019-05-23T03:04:51.623Z,0.00
2019-05-23T03:05:51.578Z,0.00
2019-05-23T03:06:51.565Z,5.63
2019-05-23T03:07:51.599Z,5.63
2019-05-23T03:08:51.494Z,5.63
2019-05-23T03:09:51.474Z,5.63
2019-05-23T03:10:51.435Z,5.63
2019-05-23T03:11:51.430Z,5.63
2019-05-23T03:12:51.380Z,11.25
2019-05-23T03:13:51.348Z,11.25
2019-05-23T03:14:51.326Z,11.25
2019-05-23T03:15:51.309Z,11.25
2019-05-23T03:16:51.288Z,11.25
2019-05-23T03:17:51.247Z,16.88
2019-05-23T03:18:51.233Z,16.88
2019-05-23T03:19:51.215Z,16.88
2019-05-23T03:20:51.183Z,16.88
2019-05-23T03:21:51.160Z,22.50
2019-05-23T03:22:51.128Z,22.50
2019-05-23T03:23:51.095Z,22.50
2019-05-23T03:24:51.075Z,28.13
2019-05-23T03:25:59.689Z,28.13
2019-05-23T03:27:44.393Z,33.75
2019-05-23T03:28:43.886Z,33.75
2019-05-23T03:30:49.781Z,39.38
2019-05-23T03:31:49.754Z,45.00
2019-05-23T03:33:43.147Z,50.63
2019-05-23T03:34:43.091Z,50.63
2019-05-23T03:36:57.841Z,61.88
2019-05-23T03:37:50.547Z,61.88
2019-05-23T03:39:44.442Z,73.13
2019-05-23T03:40:44.422Z,73.13
2019-05-23T03:42:37.494Z,84.38
2019-05-23T03:43:37.236Z,84.38
2019-05-23T03:45:33.130Z,95.63
2019-05-23T03:46:33.117Z,95.63
2019-05-23T03:48:28.036Z,101.25
2019-05-23T03:49:27.440Z,106.88
2019-05-23T03:51:20.324Z,112.50
2019-05-23T03:52:20.294Z,118.13
2019-05-23T03:54:29.233Z,123.75
2019-05-23T03:55:29.130Z,129.38
2019-05-23T03:57:25.834Z,135.00
2019-05-23T03:58:23.457Z,135.00
2019-05-23T04:00:16.358Z,140.63
2019-05-23T04:01:16.346Z,146.25
2019-05-23T04:02:16.301Z,146.25
2019-05-23T04:03:16.282Z,151.88
2019-05-23T04:04:16.253Z,151.88
2019-05-23T04:05:16.217Z,157.50
2019-05-23T04:06:16.203Z,157.50
2019-05-23T04:07:16.173Z,157.50
2019-05-23T04:08:16.154Z,157.50
2019-05-23T04:09:16.129Z,163.13
2019-05-23T04:10:16.091Z,163.13
2019-05-23T04:11:16.073Z,168.75
2019-05-23T04:12:16.045Z,168.75
2019-05-23T04:13:16.021Z,185.63
2019-05-23T04:14:16.003Z,196.88
2019-05-23T04:15:15.971Z,202.50
2019-05-23T04:16:15.943Z,196.88
2019-05-23T04:17:15.920Z,191.25
2019-05-23T04:18:15.893Z,196.88
2019-05-23T04:19:15.870Z,202.50
2019-05-23T04:20:15.845Z,208.13
2019-05-23T04:21:15.817Z,208.13
2019-05-23T04:22:15.801Z,213.75
2019-05-23T04:23:15.775Z,219.38
2019-05-23T04:24:15.735Z,225.00
2019-05-23T04:25:15.740Z,230.63
2019-05-23T04:26:15.789Z,236.25
2019-05-23T04:27:15.669Z,236.25
2019-05-23T04:28:15.641Z,241.88
2019-05-23T04:29:15.610Z,241.88
2019-05-23T04:30:15.594Z,247.50
2019-05-23T04:31:15.576Z,247.50
2019-05-23T04:32:15.544Z,253.13
2019-05-23T04:33:15.517Z,258.75
2019-05-23T04:34:15.491Z,264.38
2019-05-23T04:35:15.469Z,264.38
2019-05-23T04:36:15.445Z,270.00
2019-05-23T04:37:15.426Z,275.63
2019-05-23T04:38:15.397Z,281.25
2019-05-23T04:39:15.368Z,281.25
2019-05-23T04:40:15.340Z,286.88
2019-05-23T04:41:15.331Z,298.13
2019-05-23T04:42:15.297Z,309.38
2019-05-23T04:43:15.280Z,315.00
2019-05-23T04:44:15.247Z,326.25
2019-05-23T04:45:15.215Z,331.88
2019-05-23T04:46:15.198Z,337.50
2019-05-23T04:47:15.173Z,337.50
2019-05-23T04:48:15.149Z,343.13
2019-05-23T04:49:15.139Z,343.13
2019-05-23T04:50:15.132Z,343.13
2019-05-23T04:51:15.074Z,343.13
2019-05-23T04:52:15.055Z,343.13
2019-05-23T04:53:15.037Z,343.13
2019-05-23T04:54:15.003Z,354.38
2019-05-23T04:55:14.976Z,365.63
2019-05-23T04:56:14.952Z,376.88
2019-05-23T04:57:14.930Z,388.13
2019-05-23T04:58:14.900Z,388.13
2019-05-23T04:59:14.881Z,393.75
2019-05-23T05:00:14.857Z,393.75
2019-05-23T05:01:14.828Z,399.38
2019-05-23T05:02:25.484Z,399.38
2019-05-23T05:03:17.859Z,405.00
2019-05-23T05:04:14.756Z,410.63
2019-05-23T05:05:14.735Z,416.25
2019-05-23T05:06:29.391Z,433.13
2019-05-23T05:08:19.583Z,455.63
2019-05-23T05:09:18.774Z,466.88
2019-05-23T05:11:22.667Z,483.75
2019-05-23T05:12:22.647Z,489.38
2019-05-23T05:13:22.631Z,500.63
2019-05-23T05:14:22.608Z,500.63
2019-05-23T05:15:22.568Z,511.88
2019-05-23T05:16:22.541Z,517.50
2019-05-23T05:17:22.512Z,517.50
2019-05-23T05:18:22.484Z,517.50
2019-05-23T05:19:22.467Z,517.50
2019-05-23T05:20:22.516Z,523.13
2019-05-23T05:21:22.449Z,523.13
2019-05-23T05:22:22.409Z,528.75
2019-05-23T05:23:22.378Z,534.38
2019-05-23T05:24:22.353Z,540.00
2019-05-23T05:25:22.317Z,551.25
2019-05-23T05:26:22.303Z,568.13
2019-05-23T05:27:22.277Z,585.00
2019-05-23T05:28:22.267Z,585.00
2019-05-23T05:29:22.241Z,573.75
2019-05-23T05:30:22.213Z,585.00
2019-05-23T05:31:22.204Z,742.50
2019-05-23T05:32:22.179Z,787.50
2019-05-23T05:33:22.160Z,731.25
2019-05-23T05:34:22.120Z,781.88
2019-05-23T05:35:22.095Z,855.00
2019-05-23T05:36:22.096Z,945.00
2019-05-23T05:37:22.057Z,1001.25
2019-05-23T05:38:22.036Z,1023.75
2019-05-23T05:39:22.008Z,1018.13
2019-05-23T05:40:21.981Z,1057.50
2019-05-23T05:41:22.007Z,1068.75
2019-05-23T05:42:21.959Z,1057.50
2019-05-23T05:43:21.931Z,1102.50
2019-05-23T05:44:22.062Z,1203.75
2019-05-23T05:45:21.887Z,1276.88
2019-05-23T05:46:21.875Z,1198.13
2019-05-23T05:47:21.896Z,1108.13
2019-05-23T05:48:21.821Z,1164.38
2019-05-23T05:49:21.803Z,1265.63
2019-05-23T05:50:21.803Z,1423.13
2019-05-23T05:51:21.792Z,1496.25
2019-05-23T05:52:21.756Z,1485.00
2019-05-23T05:53:21.734Z,1490.63
2019-05-23T05:54:21.738Z,1485.00
2019-05-23T05:55:21.693Z,1485.00
2019-05-23T05:56:21.673Z,1473.75
2019-05-23T05:57:21.661Z,1530.00
2019-05-23T05:58:21.658Z,1485.00
2019-05-23T05:59:21.616Z,1355.63
2019-05-23T06:00:21.608Z,1305.00
2019-05-23T06:01:33.365Z,1321.88
2019-05-23T06:02:21.609Z,1305.00
2019-05-23T06:03:21.543Z,1361.25
2019-05-23T06:04:21.543Z,1417.50
2019-05-23T06:05:21.520Z,1440.00
2019-05-23T06:06:21.551Z,1456.88
2019-05-23T06:07:21.509Z,1485.00
2019-05-23T06:08:21.473Z,1518.75
2019-05-23T06:09:21.456Z,1462.50
2019-05-23T06:10:21.430Z,1479.38
2019-05-23T06:11:21.418Z,1552.50
2019-05-23T06:12:21.403Z,1597.50
2019-05-23T06:13:21.420Z,1597.50
2019-05-23T06:14:21.388Z,1541.25
2019-05-23T06:15:21.401Z,1597.50
2019-05-23T06:16:21.347Z,1631.25
2019-05-23T06:17:21.312Z,1603.13
2019-05-23T06:18:21.306Z,1603.13
2019-05-23T06:19:21.285Z,1552.50
2019-05-23T06:20:21.261Z,1501.88
2019-05-23T06:21:21.278Z,1524.38
2019-05-23T06:22:21.233Z,1603.13
2019-05-23T06:23:21.234Z,1580.63
2019-05-23T06:24:39.491Z,1468.13
2019-05-23T06:25:21.261Z,1456.88
2019-05-23T06:26:21.224Z,1479.38
2019-05-23T06:27:21.155Z,1558.13
2019-05-23T06:28:21.279Z,1563.75
2019-05-23T06:29:21.140Z,1642.50
2019-05-23T06:30:21.168Z,1575.00
2019-05-23T06:31:21.115Z,1614.38
2019-05-23T06:32:21.095Z,1490.63
2019-05-23T06:33:23.603Z,1473.75
2019-05-23T06:34:21.094Z,1456.88
2019-05-23T06:35:21.081Z,1479.38
2019-05-23T06:36:21.066Z,1614.38
2019-05-23T06:37:21.027Z,1625.63
2019-05-23T06:38:21.004Z,1693.13
2019-05-23T06:39:21.006Z,2064.38
2019-05-23T06:40:20.983Z,2188.13
2019-05-23T06:41:20.959Z,2227.50
2019-05-23T06:42:20.939Z,2205.00
2019-05-23T06:43:20.955Z,2216.25
2019-05-23T06:44:20.938Z,2317.50
2019-05-23T06:45:20.948Z,2328.75
2019-05-23T06:46:20.898Z,2317.50
2019-05-23T06:47:20.859Z,2205.00
2019-05-23T06:48:20.898Z,2182.50
2019-05-23T06:49:20.837Z,2311.88
2019-05-23T06:50:20.857Z,2368.13
2019-05-23T06:51:20.833Z,2446.88
2019-05-23T06:52:20.804Z,2486.25
2019-05-23T06:53:20.795Z,2475.00
2019-05-23T06:54:20.817Z,2458.13
2019-05-23T06:55:20.761Z,2413.13
2019-05-23T06:56:29.475Z,2210.63
2019-05-23T06:58:14.157Z,1861.88
2019-05-23T06:59:14.147Z,1749.38
2019-05-23T07:01:07.033Z,1732.50
2019-05-23T07:02:07.005Z,1693.13
2019-05-23T07:04:00.395Z,1715.63
2019-05-23T07:05:00.338Z,1704.38
2019-05-23T07:06:53.247Z,1957.50
2019-05-23T07:07:53.228Z,1985.63
2019-05-23T07:08:53.215Z,2233.13
2019-05-23T07:09:53.201Z,2418.75
2019-05-23T07:10:53.203Z,2340.00
2019-05-23T07:11:53.179Z,2300.63
2019-05-23T07:12:53.166Z,2193.75
2019-05-23T07:13:53.158Z,2160.00
2019-05-23T07:14:53.148Z,2390.63
2019-05-23T07:15:53.130Z,2250.00
2019-05-23T07:16:53.109Z,2086.88
2019-05-23T07:17:53.101Z,1974.38
2019-05-23T07:18:53.090Z,1726.88
2019-05-23T07:19:53.111Z,1726.88
2019-05-23T07:20:53.071Z,1771.88
2019-05-23T07:21:53.052Z,1738.13
2019-05-23T07:22:53.041Z,1732.50
2019-05-23T07:23:53.028Z,1991.25
2019-05-23T07:24:58.352Z,2070.00
2019-05-23T07:25:53.008Z,2137.50
2019-05-23T07:26:52.994Z,2137.50
2019-05-23T07:27:53.199Z,2255.63
2019-05-23T07:28:52.970Z,2418.75
2019-05-23T07:29:52.951Z,2463.75
2019-05-23T07:30:52.962Z,2542.50
2019-05-23T07:31:52.927Z,2531.25
2019-05-23T07:32:52.918Z,2446.88
2019-05-23T07:34:01.930Z,2570.63
2019-05-23T07:34:52.883Z,2587.50
2019-05-23T07:35:52.881Z,2131.88
2019-05-23T07:36:52.869Z,2688.75
2019-05-23T07:37:52.852Z,2694.38
2019-05-23T07:38:52.836Z,2728.13
2019-05-23T07:39:52.835Z,2773.13
2019-05-23T07:40:52.823Z,2840.63
2019-05-23T07:41:52.812Z,2756.25
2019-05-23T07:42:52.848Z,2733.75
2019-05-23T07:43:52.785Z,2638.13
2019-05-23T07:44:52.773Z,2711.25
2019-05-23T07:45:52.754Z,2806.88
2019-05-23T07:46:52.747Z,2874.38
2019-05-23T07:47:52.734Z,2857.50
2019-05-23T07:48:52.732Z,2823.75
2019-05-23T07:49:52.724Z,2728.13
2019-05-23T07:50:52.730Z,2666.25
2019-05-23T07:51:52.691Z,2790.00
2019-05-23T07:52:52.681Z,2908.13
2019-05-23T07:53:52.673Z,2885.63
2019-05-23T07:54:52.654Z,2953.13
2019-05-23T07:55:52.658Z,2846.25
2019-05-23T07:56:52.643Z,3015.00
2019-05-23T07:59:32.088Z,3285.00
2019-05-23T08:00:39.226Z,3268.13
2019-05-23T08:02:26.105Z,3245.63
2019-05-23T08:03:32.781Z,3335.63
2019-05-23T08:05:18.427Z,3481.88
2019-05-23T08:06:27.997Z,3532.50
2019-05-23T08:08:12.831Z,3566.25
2019-05-23T08:09:12.864Z,3560.63
2019-05-23T08:11:06.198Z,3560.63
2019-05-23T08:12:06.163Z,3628.13
2019-05-23T08:13:59.080Z,3763.13
2019-05-23T08:14:59.041Z,3858.75
2019-05-23T08:16:51.977Z,3881.25
2019-05-23T08:17:51.935Z,3881.25
2019-05-23T08:19:57.921Z,3110.63
2019-05-23T08:20:57.862Z,3588.75
2019-05-23T08:23:01.335Z,2548.13
2019-05-23T08:24:01.256Z,3594.38
2019-05-23T08:26:00.277Z,2396.25
2019-05-23T08:27:00.273Z,3622.50
2019-05-23T08:29:23.744Z,3718.13
2019-05-23T08:29:54.806Z,3791.25
2019-05-23T08:31:49.566Z,3813.75
2019-05-23T08:32:49.261Z,3802.50
2019-05-23T08:34:43.578Z,3841.88
2019-05-23T08:35:44.005Z,3875.63
2019-05-23T08:37:38.620Z,3898.13
2019-05-23T08:38:38.444Z,3808.13
2019-05-23T08:39:38.530Z,3841.88
2019-05-23T08:40:38.035Z,3796.88
2019-05-23T08:41:38.051Z,3729.38
2019-05-23T08:42:38.056Z,3453.75
2019-05-23T08:43:37.943Z,3678.75
2019-05-23T08:44:38.470Z,3746.25
2019-05-23T08:45:38.289Z,3881.25
2019-05-23T08:46:38.104Z,3948.75
2019-05-23T08:47:37.967Z,4072.50
2019-05-23T08:48:38.147Z,3937.50
2019-05-23T08:49:38.128Z,3206.25
2019-05-23T08:50:37.985Z,1991.25
2019-05-23T08:51:38.087Z,1912.50
2019-05-23T08:52:38.517Z,1991.25
2019-05-23T08:53:37.918Z,3330.00
2019-05-23T08:54:37.903Z,3037.50
2019-05-23T08:55:38.012Z,1828.13
2019-05-23T08:56:37.916Z,1653.75
2019-05-23T08:57:37.888Z,1541.25
2019-05-23T08:58:38.020Z,1501.88
2019-05-23T08:59:37.870Z,1434.38
2019-05-23T09:00:37.902Z,1321.88
2019-05-23T09:01:37.848Z,1203.75
2019-05-23T09:02:38.055Z,1113.75
2019-05-23T09:03:37.844Z,1046.25
2019-05-23T09:04:38.002Z,1006.88
2019-05-23T09:05:37.827Z,984.38
2019-05-23T09:06:37.787Z,961.88
2019-05-23T09:07:37.800Z,956.25
2019-05-23T09:08:37.791Z,950.63
2019-05-23T09:09:37.751Z,939.38
2019-05-23T09:10:37.798Z,922.50
2019-05-23T09:11:37.735Z,933.75
2019-05-23T09:12:37.965Z,973.13
2019-05-23T09:13:37.737Z,1006.88
2019-05-23T09:14:37.751Z,1046.25
2019-05-23T09:15:37.696Z,1108.13
2019-05-23T09:16:37.697Z,1209.38
2019-05-23T09:17:52.310Z,1271.25
2019-05-23T09:18:37.658Z,1350.00
2019-05-23T09:19:37.688Z,1445.63
2019-05-23T09:20:37.655Z,1603.13
2019-05-23T09:21:37.672Z,1963.13
2019-05-23T09:22:37.593Z,4286.25
2019-05-23T09:23:37.606Z,4477.50
2019-05-23T09:24:37.581Z,4511.25
2019-05-23T09:25:37.565Z,4528.13
2019-05-23T09:26:37.574Z,4477.50
2019-05-23T09:27:37.619Z,4308.75
2019-05-23T09:28:37.425Z,4320.00
2019-05-23T09:29:37.547Z,4365.00
2019-05-23T09:30:37.546Z,4342.50
2019-05-23T09:31:37.487Z,4213.13
2019-05-23T09:32:37.480Z,4173.75
2019-05-23T09:33:37.463Z,3796.88
2019-05-23T09:34:37.458Z,4173.75
2019-05-23T09:35:37.445Z,3026.25
2019-05-23T09:36:37.655Z,1743.75
2019-05-23T09:37:39.008Z,1530.00
2019-05-23T09:38:37.582Z,1434.38
2019-05-23T09:39:37.814Z,1378.13
2019-05-23T09:40:37.455Z,1350.00
2019-05-23T09:41:37.462Z,1333.13
2019-05-23T09:42:37.448Z,1327.50
2019-05-23T09:43:37.416Z,1321.88
2019-05-23T09:44:37.407Z,1327.50
2019-05-23T09:45:37.379Z,1327.50
2019-05-23T09:46:37.440Z,1316.25
2019-05-23T09:47:37.367Z,1310.63
2019-05-23T09:48:37.329Z,1316.25
2019-05-23T09:49:37.548Z,1327.50
2019-05-23T09:50:37.336Z,1344.38
2019-05-23T09:51:37.370Z,1366.88
2019-05-23T09:52:37.507Z,1383.75
2019-05-23T09:53:38.061Z,1417.50
2019-05-23T09:54:37.270Z,1473.75
2019-05-23T09:55:38.541Z,1535.63
2019-05-23T09:56:37.616Z,1603.13
2019-05-23T09:57:37.245Z,1670.63
2019-05-23T09:58:37.234Z,1693.13
2019-05-23T09:59:37.431Z,1715.63
2019-05-23T10:00:37.299Z,1828.13
2019-05-23T10:01:37.088Z,2098.13
2019-05-23T10:02:37.535Z,1985.63
2019-05-23T10:03:37.563Z,5051.25
2019-05-23T10:04:37.373Z,2986.88
2019-05-23T10:05:43.405Z,4983.75
2019-05-23T10:06:37.365Z,5383.13
2019-05-23T10:07:38.807Z,5439.38
2019-05-23T10:08:37.183Z,5405.63
2019-05-23T10:09:37.413Z,5450.63
2019-05-23T10:10:37.284Z,5422.50
2019-05-23T10:11:37.166Z,4567.50
2019-05-23T10:12:37.124Z,2593.13
2019-05-23T10:13:39.398Z,2711.25
2019-05-23T10:14:36.993Z,3414.38
2019-05-23T10:15:37.095Z,5152.50
2019-05-23T10:16:37.177Z,5445.00
2019-05-23T10:17:37.517Z,5490.00
2019-05-23T10:18:40.170Z,3138.75
2019-05-23T10:19:37.390Z,2075.63
2019-05-23T10:20:37.383Z,2148.75
2019-05-23T10:21:36.989Z,2092.50
2019-05-23T10:22:36.993Z,2064.38
2019-05-23T10:23:36.997Z,2109.38
2019-05-23T10:24:36.986Z,2469.38
2019-05-23T10:25:36.867Z,2413.13
2019-05-23T10:26:37.296Z,4213.13
2019-05-23T10:27:37.308Z,3690.00
2019-05-23T10:28:37.299Z,2475.00
2019-05-23T10:29:37.547Z,5731.88
2019-05-23T10:30:37.422Z,5461.88
2019-05-23T10:31:36.940Z,5220.00
2019-05-23T10:32:37.110Z,5439.38
2019-05-23T10:33:36.931Z,5580.00
2019-05-23T10:34:37.075Z,3307.50
2019-05-23T10:35:36.909Z,2160.00
2019-05-23T10:38:22.557Z,2216.25
